createdAt,value
2018-12-20T00:00:40.992Z,5.60
2018-12-20T00:03:08.448Z,5.60
2018-12-20T00:05:35.952Z,5.60
2018-12-20T00:08:03.499Z,5.50
2018-12-20T00:10:31.098Z,5.50
2018-12-20T00:12:58.623Z,5.50
2018-12-20T00:15:26.179Z,5.50
2018-12-20T00:17:53.770Z,5.50
2018-12-20T00:20:21.333Z,5.50
2018-12-20T00:22:48.834Z,5.50
2018-12-20T00:25:16.672Z,5.50
2018-12-20T00:27:44.350Z,5.50
2018-12-20T00:30:11.962Z,5.50
2018-12-20T00:32:39.564Z,5.40
2018-12-20T00:35:07.178Z,5.50
2018-12-20T00:37:34.907Z,5.50
2018-12-20T00:40:06.435Z,5.40
2018-12-20T00:42:31.957Z,5.40
2018-12-20T00:44:59.723Z,5.50
2018-12-20T00:47:27.351Z,5.40
2018-12-20T00:49:54.856Z,5.40
2018-12-20T00:52:22.346Z,5.40
2018-12-20T00:54:49.892Z,5.40
2018-12-20T00:57:17.365Z,5.40
2018-12-20T00:59:44.840Z,5.40
2018-12-20T01:02:12.345Z,5.40
2018-12-20T01:04:39.976Z,5.40
2018-12-20T01:07:07.674Z,5.30
2018-12-20T01:09:35.246Z,5.30
2018-12-20T01:12:02.954Z,5.30
2018-12-20T01:14:30.956Z,5.30
2018-12-20T01:16:59.049Z,5.30
2018-12-20T01:19:26.872Z,5.30
2018-12-20T01:21:54.363Z,5.30
2018-12-20T01:24:21.816Z,5.30
2018-12-20T01:26:49.289Z,5.30
2018-12-20T01:29:17.065Z,5.30
2018-12-20T01:31:44.637Z,5.30
2018-12-20T01:34:12.144Z,5.30
2018-12-20T01:36:39.871Z,5.30
2018-12-20T01:39:07.404Z,5.30
2018-12-20T01:41:34.883Z,5.30
2018-12-20T01:44:02.439Z,5.30
2018-12-20T01:46:29.943Z,5.30
2018-12-20T01:48:57.490Z,5.30
2018-12-20T01:51:25.094Z,5.30
2018-12-20T01:53:52.748Z,5.30
2018-12-20T01:56:20.453Z,5.30
2018-12-20T01:58:48.073Z,5.30
2018-12-20T02:01:15.646Z,5.30
2018-12-20T02:03:43.438Z,5.40
2018-12-20T02:06:10.888Z,5.40
2018-12-20T02:08:38.377Z,5.40
2018-12-20T02:11:05.929Z,5.50
2018-12-20T02:13:33.575Z,5.50
2018-12-20T02:16:01.028Z,5.60
2018-12-20T02:18:28.627Z,5.50
2018-12-20T02:20:56.315Z,5.60
2018-12-20T02:23:24.107Z,5.50
2018-12-20T02:25:51.938Z,5.50
2018-12-20T02:28:19.471Z,5.50
2018-12-20T02:30:47.091Z,5.50
2018-12-20T02:33:14.708Z,5.50
2018-12-20T02:35:42.197Z,5.50
2018-12-20T02:38:09.795Z,5.50
2018-12-20T02:40:37.361Z,5.40
2018-12-20T02:43:04.929Z,5.40
2018-12-20T02:45:32.677Z,5.40
2018-12-20T02:48:00.265Z,5.50
2018-12-20T02:50:27.737Z,5.40
2018-12-20T02:52:55.391Z,5.40
2018-12-20T02:55:23.041Z,5.40
2018-12-20T02:57:50.573Z,5.40
2018-12-20T03:00:18.124Z,5.40
2018-12-20T03:02:45.840Z,5.40
2018-12-20T03:05:14.101Z,5.40
2018-12-20T03:07:42.474Z,5.40
2018-12-20T03:10:10.277Z,5.40
2018-12-20T03:12:38.006Z,5.40
2018-12-20T03:15:06.768Z,5.40
2018-12-20T03:17:34.480Z,5.40
2018-12-20T03:20:02.097Z,5.40
2018-12-20T03:22:30.045Z,5.30
2018-12-20T03:24:57.677Z,5.30
2018-12-20T03:27:25.431Z,5.20
2018-12-20T03:29:53.112Z,5.20
2018-12-20T03:32:23.000Z,5.20
2018-12-20T03:34:50.722Z,5.20
2018-12-20T03:37:18.572Z,5.30
2018-12-20T03:39:46.079Z,5.30
2018-12-20T03:42:13.636Z,5.30
2018-12-20T03:44:42.502Z,5.30
2018-12-20T03:47:10.490Z,5.30
2018-12-20T03:49:38.476Z,5.30
2018-12-20T03:52:06.518Z,5.30
2018-12-20T03:54:34.129Z,5.30
2018-12-20T03:57:01.669Z,5.30
2018-12-20T03:59:29.439Z,5.30
2018-12-20T04:01:56.975Z,5.40
2018-12-20T04:04:24.680Z,5.30
2018-12-20T04:06:52.462Z,5.30
2018-12-20T04:09:20.053Z,5.30
2018-12-20T04:11:47.639Z,5.30
2018-12-20T04:14:15.192Z,5.30
2018-12-20T04:16:43.111Z,5.40
2018-12-20T04:19:11.469Z,5.40
2018-12-20T04:21:38.999Z,5.40
2018-12-20T04:24:06.568Z,5.30
2018-12-20T04:26:34.372Z,5.30
2018-12-20T04:29:02.013Z,5.20
2018-12-20T04:31:29.520Z,5.30
2018-12-20T04:33:57.362Z,5.30
2018-12-20T04:36:25.183Z,5.30
2018-12-20T04:38:52.890Z,5.30
2018-12-20T04:41:21.099Z,5.40
2018-12-20T04:43:48.861Z,5.40
2018-12-20T04:46:16.331Z,5.40
2018-12-20T04:48:43.786Z,5.40
2018-12-20T04:51:11.573Z,5.50
2018-12-20T04:53:39.067Z,5.50
2018-12-20T04:56:06.544Z,5.50
2018-12-20T04:58:34.039Z,5.50
2018-12-20T05:01:01.492Z,5.50
2018-12-20T05:03:29.197Z,5.50
2018-12-20T05:05:57.160Z,5.50
2018-12-20T05:08:24.862Z,5.50
2018-12-20T05:10:52.622Z,5.50
2018-12-20T05:13:21.031Z,5.60
2018-12-20T05:15:56.000Z,5.70
2018-12-20T05:18:18.056Z,5.70
2018-12-20T05:20:45.553Z,5.60
2018-12-20T05:23:13.108Z,5.70
2018-12-20T05:25:40.633Z,5.70
2018-12-20T05:28:08.215Z,5.70
2018-12-20T05:30:35.911Z,5.70
2018-12-20T05:33:03.432Z,5.80
2018-12-20T05:35:31.207Z,5.70
2018-12-20T05:37:58.987Z,5.70
2018-12-20T05:40:26.597Z,5.70
2018-12-20T05:42:54.140Z,5.70
2018-12-20T05:45:21.653Z,5.80
2018-12-20T05:47:49.194Z,5.70
2018-12-20T05:50:16.755Z,5.70
2018-12-20T05:52:44.248Z,5.70
2018-12-20T05:55:11.961Z,5.70
2018-12-20T05:57:39.494Z,5.70
2018-12-20T06:00:08.922Z,5.60
2018-12-20T06:02:36.538Z,5.70
2018-12-20T06:05:05.504Z,5.70
2018-12-20T06:07:33.165Z,5.80
2018-12-20T06:10:00.667Z,5.80
2018-12-20T06:12:28.137Z,5.80
2018-12-20T06:14:55.633Z,5.80
2018-12-20T06:17:23.278Z,5.80
2018-12-20T06:19:52.805Z,5.90
2018-12-20T06:22:20.729Z,5.80
2018-12-20T06:24:48.625Z,5.90
2018-12-20T06:27:16.216Z,5.80
2018-12-20T06:29:43.711Z,5.90
2018-12-20T06:32:11.498Z,5.90
2018-12-20T06:34:38.962Z,5.90
2018-12-20T06:37:06.470Z,5.90
2018-12-20T06:39:34.177Z,5.90
2018-12-20T06:42:02.453Z,5.90
2018-12-20T06:44:29.930Z,5.90
2018-12-20T06:46:57.407Z,6.10
2018-12-20T06:49:24.884Z,6.00
2018-12-20T06:51:52.377Z,6.00
2018-12-20T06:54:19.832Z,6.00
2018-12-20T06:56:47.287Z,6.10
2018-12-20T06:59:14.801Z,6.10
2018-12-20T07:01:42.276Z,6.10
2018-12-20T07:04:09.971Z,6.10
2018-12-20T07:06:37.513Z,6.00
2018-12-20T07:09:07.120Z,6.00
2018-12-20T07:11:34.600Z,6.10
2018-12-20T07:14:02.060Z,6.10
2018-12-20T07:16:29.673Z,6.10
2018-12-20T07:18:57.228Z,6.00
2018-12-20T07:21:24.688Z,6.00
2018-12-20T07:23:52.169Z,6.00
2018-12-20T07:26:19.636Z,6.00
2018-12-20T07:28:47.116Z,6.10
2018-12-20T07:31:14.776Z,6.10
2018-12-20T07:33:42.240Z,6.10
2018-12-20T07:36:09.720Z,6.10
2018-12-20T07:38:37.172Z,6.10
2018-12-20T07:41:04.806Z,6.10
2018-12-20T07:43:33.201Z,6.10
2018-12-20T07:46:01.617Z,6.20
2018-12-20T07:48:32.308Z,6.10
2018-12-20T07:50:59.729Z,6.10
2018-12-20T07:53:27.504Z,6.10
2018-12-20T07:55:55.681Z,6.10
2018-12-20T07:58:23.181Z,6.10
2018-12-20T08:00:50.648Z,6.20
2018-12-20T08:03:19.369Z,6.20
2018-12-20T08:05:47.048Z,6.20
2018-12-20T08:08:15.188Z,6.20
2018-12-20T08:10:43.676Z,6.20
2018-12-20T08:13:11.203Z,6.30
2018-12-20T08:15:38.865Z,6.30
2018-12-20T08:18:08.330Z,6.30
2018-12-20T08:20:35.887Z,6.30
2018-12-20T08:23:04.024Z,6.30
2018-12-20T08:25:32.195Z,6.40
2018-12-20T08:28:00.362Z,6.40
2018-12-20T08:30:28.128Z,6.30
2018-12-20T08:32:55.820Z,6.40
2018-12-20T08:35:23.290Z,6.40
2018-12-20T08:37:50.980Z,6.50
2018-12-20T08:40:18.456Z,6.50
2018-12-20T08:42:45.908Z,6.50
2018-12-20T08:45:13.396Z,6.50
2018-12-20T08:47:40.868Z,6.50
2018-12-20T08:50:08.323Z,6.60
2018-12-20T08:52:35.815Z,6.60
2018-12-20T08:55:03.657Z,6.60
2018-12-20T08:57:31.348Z,6.60
2018-12-20T08:59:58.808Z,6.60
2018-12-20T09:02:26.260Z,6.60
2018-12-20T09:04:53.724Z,6.70
2018-12-20T09:07:21.181Z,6.60
2018-12-20T09:09:48.656Z,6.60
2018-12-20T09:12:16.157Z,6.60
2018-12-20T09:14:43.637Z,6.60
2018-12-20T09:17:11.108Z,6.70
2018-12-20T09:19:38.556Z,6.80
2018-12-20T09:22:06.037Z,6.80
2018-12-20T09:24:33.486Z,6.80
2018-12-20T09:27:00.940Z,6.80
2018-12-20T09:29:28.429Z,6.80
2018-12-20T09:31:55.889Z,6.90
2018-12-20T09:34:23.377Z,7.00
2018-12-20T09:36:50.824Z,7.10
2018-12-20T09:39:18.304Z,7.20
2018-12-20T09:41:45.772Z,7.30
2018-12-20T09:44:13.224Z,7.50
2018-12-20T09:46:40.706Z,7.50
2018-12-20T09:49:08.148Z,7.60
2018-12-20T09:51:35.624Z,7.70
2018-12-20T09:54:03.078Z,7.80
2018-12-20T09:56:30.527Z,7.80
2018-12-20T09:58:58.101Z,7.80
2018-12-20T10:01:25.564Z,7.70
2018-12-20T10:03:53.049Z,7.90
2018-12-20T10:06:20.510Z,7.80
2018-12-20T10:08:48.076Z,7.90
2018-12-20T10:11:15.541Z,7.90
2018-12-20T10:13:43.213Z,8.00
2018-12-20T10:16:10.672Z,7.90
2018-12-20T10:18:38.120Z,8.10
2018-12-20T10:21:05.604Z,7.90
2018-12-20T10:23:33.060Z,8.10
2018-12-20T10:26:00.508Z,8.00
2018-12-20T10:28:27.994Z,8.30
2018-12-20T10:30:55.437Z,8.60
2018-12-20T10:33:22.913Z,8.70
2018-12-20T10:35:50.369Z,8.60
2018-12-20T10:38:18.063Z,8.40
2018-12-20T10:40:45.539Z,8.40
2018-12-20T10:43:12.989Z,8.10
2018-12-20T10:45:40.477Z,8.20
2018-12-20T10:48:07.936Z,8.20
2018-12-20T10:50:36.360Z,8.10
2018-12-20T10:53:03.924Z,8.10
2018-12-20T10:55:31.446Z,8.20
2018-12-20T10:57:59.153Z,8.40
2018-12-20T11:00:28.589Z,8.50
2018-12-20T11:03:01.796Z,8.60
2018-12-20T11:05:34.915Z,8.50
2018-12-20T11:08:04.364Z,8.40
2018-12-20T11:13:01.612Z,8.40
2018-12-20T11:15:29.192Z,8.40
2018-12-20T11:17:56.652Z,8.20
2018-12-20T11:20:24.124Z,8.20
2018-12-20T11:22:51.598Z,8.20
2018-12-20T11:25:21.076Z,8.20
2018-12-20T11:27:48.544Z,8.20
2018-12-20T11:30:15.999Z,8.00
2018-12-20T11:32:43.469Z,8.00
2018-12-20T11:35:10.916Z,8.00
2018-12-20T11:37:38.405Z,7.90
2018-12-20T11:40:06.047Z,7.90
2018-12-20T11:42:33.564Z,7.80
2018-12-20T11:45:01.013Z,7.80
2018-12-20T11:47:28.628Z,7.80
2018-12-20T11:49:56.097Z,7.70
2018-12-20T11:52:23.617Z,7.80
2018-12-20T11:54:51.101Z,7.70
2018-12-20T11:57:18.547Z,7.70
2018-12-20T11:59:45.997Z,7.70
2018-12-20T12:02:13.463Z,7.70
2018-12-20T12:04:40.912Z,7.60
2018-12-20T12:07:08.604Z,7.40
2018-12-20T12:09:36.074Z,7.30
2018-12-20T12:12:03.952Z,7.30
2018-12-20T12:14:31.420Z,7.20
2018-12-20T12:16:58.895Z,7.10
2018-12-20T12:19:26.370Z,7.10
2018-12-20T12:21:54.085Z,7.00
2018-12-20T12:24:21.535Z,7.00
2018-12-20T12:26:49.019Z,7.00
2018-12-20T12:29:16.472Z,7.00
2018-12-20T12:31:44.222Z,7.00
2018-12-20T12:34:11.701Z,7.00
2018-12-20T12:36:39.257Z,7.00
2018-12-20T12:39:07.548Z,7.00
2018-12-20T12:41:35.644Z,7.00
2018-12-20T12:44:03.236Z,7.00
2018-12-20T12:46:31.008Z,7.00
2018-12-20T12:48:58.481Z,7.00
2018-12-20T12:51:25.952Z,7.00
2018-12-20T12:53:53.515Z,7.00
2018-12-20T12:56:21.349Z,7.10
2018-12-20T12:58:48.804Z,7.10
2018-12-20T13:01:16.284Z,7.20
2018-12-20T13:03:43.740Z,7.30
2018-12-20T13:06:11.193Z,7.30
2018-12-20T13:08:38.683Z,7.30
2018-12-20T13:11:06.163Z,7.30
2018-12-20T13:13:33.652Z,7.30
2018-12-20T13:16:01.123Z,7.30
2018-12-20T13:18:28.596Z,7.30
2018-12-20T13:20:56.060Z,7.30
2018-12-20T13:23:25.614Z,7.40
2018-12-20T13:25:53.045Z,7.40
2018-12-20T13:28:20.500Z,7.40
2018-12-20T13:30:48.189Z,7.50
2018-12-20T13:33:15.631Z,7.50
2018-12-20T13:35:43.340Z,7.50
2018-12-20T13:38:10.805Z,7.50
2018-12-20T13:40:38.257Z,7.50
2018-12-20T13:43:05.763Z,7.60
2018-12-20T13:45:33.221Z,7.60
2018-12-20T13:48:01.945Z,7.60
2018-12-20T13:50:29.389Z,7.70
2018-12-20T13:52:56.836Z,7.80
2018-12-20T13:55:24.300Z,7.90
2018-12-20T13:57:51.850Z,8.00
2018-12-20T14:00:19.380Z,8.10
2018-12-20T14:02:46.829Z,8.20
2018-12-20T14:05:14.275Z,8.10
2018-12-20T14:07:41.790Z,8.10
2018-12-20T14:10:09.584Z,8.20
2018-12-20T14:12:37.045Z,8.10
2018-12-20T14:15:05.825Z,8.10
2018-12-20T14:17:33.308Z,8.10
2018-12-20T14:20:00.771Z,8.10
2018-12-20T14:25:01.973Z,8.10
2018-12-20T14:27:29.439Z,8.10
2018-12-20T14:29:56.920Z,8.10
2018-12-20T14:32:24.364Z,8.10
2018-12-20T14:34:51.824Z,8.10
2018-12-20T14:37:19.293Z,8.10
2018-12-20T14:39:46.964Z,8.10
2018-12-20T14:42:14.439Z,8.10
2018-12-20T14:44:42.120Z,8.10
2018-12-20T14:47:09.571Z,8.00
2018-12-20T14:49:37.043Z,8.00
2018-12-20T14:52:04.712Z,8.00
2018-12-20T14:54:32.181Z,8.10
2018-12-20T14:56:59.633Z,8.00
2018-12-20T14:59:27.100Z,8.10
2018-12-20T15:01:54.804Z,8.00
2018-12-20T15:04:22.273Z,7.90
2018-12-20T15:06:49.814Z,8.00
2018-12-20T15:09:17.404Z,7.80
2018-12-20T15:11:44.855Z,7.90
2018-12-20T15:14:12.353Z,7.90
2018-12-20T15:16:39.804Z,7.90
2018-12-20T15:19:07.261Z,7.80
2018-12-20T15:21:34.731Z,7.80
2018-12-20T15:24:02.204Z,7.80
2018-12-20T15:26:29.680Z,7.80
2018-12-20T15:28:57.148Z,7.80
2018-12-20T15:31:24.619Z,7.80
2018-12-20T15:33:52.101Z,7.80
2018-12-20T15:36:19.615Z,7.70
2018-12-20T15:38:47.080Z,7.70
2018-12-20T15:41:14.545Z,7.70
2018-12-20T15:43:43.769Z,7.70
2018-12-20T15:46:11.327Z,7.70
2018-12-20T15:48:38.773Z,7.70
2018-12-20T15:51:06.449Z,7.70
2018-12-20T15:53:34.116Z,7.70
2018-12-20T15:56:02.660Z,7.60
2018-12-20T15:58:30.268Z,7.60
2018-12-20T16:00:57.716Z,7.60
2018-12-20T16:03:25.206Z,7.60
2018-12-20T16:05:52.679Z,7.60
2018-12-20T16:08:20.156Z,7.50
2018-12-20T16:10:47.628Z,7.50
2018-12-20T16:13:15.541Z,7.60
2018-12-20T16:15:43.050Z,7.50
2018-12-20T16:18:10.505Z,7.50
2018-12-20T16:20:38.346Z,7.50
2018-12-20T16:23:05.803Z,7.50
2018-12-20T16:25:33.568Z,7.50
2018-12-20T16:28:01.064Z,7.50
2018-12-20T16:30:28.518Z,7.50
2018-12-20T16:32:56.039Z,7.40
2018-12-20T16:35:23.488Z,7.40
2018-12-20T16:37:51.203Z,7.40
2018-12-20T16:40:18.772Z,7.40
2018-12-20T16:42:46.296Z,7.30
2018-12-20T16:45:13.854Z,7.30
2018-12-20T16:47:41.309Z,7.30
2018-12-20T16:50:09.017Z,7.20
2018-12-20T16:52:36.476Z,7.20
2018-12-20T16:55:05.291Z,7.20
2018-12-20T16:57:32.768Z,7.20
2018-12-20T17:00:00.225Z,7.20
2018-12-20T17:02:27.912Z,7.20
2018-12-20T17:04:55.353Z,7.10
2018-12-20T17:07:22.836Z,7.10
2018-12-20T17:09:50.291Z,7.10
2018-12-20T17:12:17.960Z,7.00
2018-12-20T17:14:45.433Z,7.00
2018-12-20T17:17:12.884Z,6.90
2018-12-20T17:19:40.362Z,6.90
2018-12-20T17:22:08.031Z,6.90
2018-12-20T17:24:35.479Z,6.90
2018-12-20T17:27:02.948Z,6.90
2018-12-20T17:29:31.409Z,6.90
2018-12-20T17:31:58.884Z,6.90
2018-12-20T17:34:26.328Z,6.90
2018-12-20T17:36:53.824Z,6.90
2018-12-20T17:39:21.276Z,6.90
2018-12-20T17:41:48.745Z,6.80
2018-12-20T17:44:16.196Z,6.80
2018-12-20T17:46:43.692Z,6.80
2018-12-20T17:49:11.188Z,6.80
2018-12-20T17:51:38.730Z,6.80
2018-12-20T17:54:06.188Z,6.90
2018-12-20T17:56:33.910Z,6.90
2018-12-20T17:59:01.621Z,6.90
2018-12-20T18:01:29.095Z,6.90
2018-12-20T18:03:56.564Z,7.00
2018-12-20T18:06:24.029Z,7.00
2018-12-20T18:08:51.804Z,7.00
2018-12-20T18:11:19.260Z,7.00
2018-12-20T18:13:46.881Z,7.00
2018-12-20T18:16:14.592Z,7.00
2018-12-20T18:18:42.076Z,7.00
2018-12-20T18:21:09.544Z,7.10
2018-12-20T18:23:37.246Z,7.10
2018-12-20T18:26:04.978Z,7.00
2018-12-20T18:28:32.436Z,6.90
2018-12-20T18:30:59.931Z,7.00
2018-12-20T18:33:27.614Z,6.90
2018-12-20T18:35:55.084Z,6.90
2018-12-20T18:38:22.536Z,6.80
2018-12-20T18:40:50.052Z,6.80
2018-12-20T18:43:17.525Z,6.90
2018-12-20T18:45:44.980Z,6.90
2018-12-20T18:48:12.546Z,6.90
2018-12-20T18:50:39.991Z,6.90
2018-12-20T18:53:07.460Z,6.90
2018-12-20T18:55:34.912Z,6.90
2018-12-20T18:58:02.420Z,6.90
2018-12-20T19:00:29.892Z,6.90
2018-12-20T19:02:57.336Z,7.00
2018-12-20T19:05:24.805Z,7.00
2018-12-20T19:07:52.260Z,7.00
2018-12-20T19:10:19.712Z,7.00
2018-12-20T19:12:47.420Z,7.00
2018-12-20T19:15:15.104Z,7.00
2018-12-20T19:17:42.574Z,7.00
2018-12-20T19:20:15.982Z,7.00
2018-12-20T19:22:39.577Z,7.10
2018-12-20T19:25:07.264Z,7.10
2018-12-20T19:27:34.736Z,7.10
2018-12-20T19:30:02.188Z,7.10
2018-12-20T19:32:29.658Z,7.10
2018-12-20T19:34:57.356Z,7.10
2018-12-20T19:37:24.813Z,7.10
2018-12-20T19:39:54.271Z,7.10
2018-12-20T19:42:21.720Z,7.10
2018-12-20T19:44:49.193Z,7.20
2018-12-20T19:47:16.656Z,7.20
2018-12-20T19:49:44.108Z,7.20
2018-12-20T19:52:11.585Z,7.20
2018-12-20T19:54:39.035Z,7.20
2018-12-20T19:57:06.522Z,7.20
2018-12-20T19:59:38.700Z,7.10
2018-12-20T20:02:04.708Z,7.10
2018-12-20T20:04:32.528Z,7.10
2018-12-20T20:06:59.984Z,7.10
2018-12-20T20:09:27.448Z,7.00
2018-12-20T20:11:54.908Z,7.00
2018-12-20T20:14:22.381Z,6.90
2018-12-20T20:16:50.963Z,7.00
2018-12-20T20:19:18.733Z,6.90
2018-12-20T20:21:46.203Z,6.90
2018-12-20T20:24:13.672Z,6.90
2018-12-20T20:26:41.146Z,7.00
2018-12-20T20:29:08.600Z,6.90
2018-12-20T20:31:36.380Z,6.90
2018-12-20T20:34:04.147Z,6.90
2018-12-20T20:36:31.598Z,6.80
2018-12-20T20:39:02.165Z,6.90
2018-12-20T20:41:28.586Z,6.90
2018-12-20T20:43:56.040Z,6.80
2018-12-20T20:46:23.516Z,6.90
2018-12-20T20:48:50.968Z,6.90
2018-12-20T20:51:18.681Z,6.90
2018-12-20T20:53:46.136Z,7.00
2018-12-20T20:56:13.604Z,7.00
2018-12-20T20:58:41.057Z,6.90
2018-12-20T21:01:08.501Z,6.90
2018-12-20T21:03:35.965Z,7.00
2018-12-20T21:06:03.476Z,7.00
2018-12-20T21:08:31.110Z,7.00
2018-12-20T21:10:58.920Z,7.00
2018-12-20T21:13:26.384Z,7.00
2018-12-20T21:15:53.852Z,7.00
2018-12-20T21:18:21.520Z,7.00
2018-12-20T21:20:49.048Z,7.00
2018-12-20T21:23:16.511Z,7.00
2018-12-20T21:25:43.979Z,7.10
2018-12-20T21:28:11.432Z,7.00
2018-12-20T21:30:39.131Z,7.00
2018-12-20T21:33:06.616Z,7.00
2018-12-20T21:35:34.127Z,7.00
2018-12-20T21:38:01.597Z,7.00
2018-12-20T21:40:29.094Z,7.00
2018-12-20T21:45:17.815Z,7.00
2018-12-20T21:47:45.264Z,7.00
2018-12-20T21:50:12.736Z,7.00
2018-12-20T21:52:40.186Z,6.90
2018-12-20T21:55:07.635Z,6.90
2018-12-20T21:57:35.424Z,6.90
2018-12-20T22:00:03.936Z,6.80
2018-12-20T22:02:31.420Z,6.80
2018-12-20T22:04:58.868Z,6.70
2018-12-20T22:07:26.336Z,6.80
2018-12-20T22:09:53.817Z,6.70
2018-12-20T22:12:21.297Z,6.70
2018-12-20T22:14:48.984Z,6.60
2018-12-20T22:17:16.668Z,6.60
2018-12-20T22:19:44.361Z,6.60
2018-12-20T22:22:11.804Z,6.60
2018-12-20T22:24:39.256Z,6.60
2018-12-20T22:27:06.744Z,6.40
2018-12-20T22:29:34.193Z,6.50
2018-12-20T22:32:01.660Z,6.50
2018-12-20T22:34:29.141Z,6.50
2018-12-20T22:36:56.722Z,6.50
2018-12-20T22:39:24.192Z,6.40
2018-12-20T22:41:51.860Z,6.50
2018-12-20T22:44:19.612Z,6.50
2018-12-20T22:46:47.073Z,6.50
2018-12-20T22:49:14.761Z,6.50
2018-12-20T22:51:42.280Z,6.50
2018-12-20T22:54:09.744Z,6.50
2018-12-20T22:56:37.223Z,6.50
2018-12-20T22:59:04.672Z,6.50
2018-12-20T23:01:32.216Z,6.50
2018-12-20T23:03:59.735Z,6.50
2018-12-20T23:06:27.239Z,6.40
2018-12-20T23:08:54.752Z,6.40
2018-12-20T23:11:22.209Z,6.40
2018-12-20T23:13:51.446Z,6.40
2018-12-20T23:16:18.906Z,6.50
2018-12-20T23:18:46.368Z,6.60
2018-12-20T23:21:13.820Z,6.70
2018-12-20T23:23:41.292Z,6.70
2018-12-20T23:26:08.744Z,6.70
2018-12-20T23:28:36.448Z,6.70
2018-12-20T23:31:03.944Z,6.80
2018-12-20T23:33:31.664Z,6.80
2018-12-20T23:35:59.110Z,6.80
2018-12-20T23:38:26.571Z,6.90
2018-12-20T23:40:55.168Z,6.80
2018-12-20T23:43:22.634Z,6.90
2018-12-20T23:45:50.086Z,6.90
2018-12-20T23:48:17.664Z,6.90
2018-12-20T23:50:45.193Z,6.90
2018-12-20T23:53:12.672Z,7.00
2018-12-20T23:55:40.133Z,7.00
2018-12-20T23:58:07.629Z,7.00
